Pagrindinis puslapis
METAR-TAF:

METAR-TAF

Oro uostai :

Haugesiundas, Norvegija

platuma: 59-21N, ilguma: 005-13E, Aukštis: 2 m

Dabartinis oras

Ataskaita buvo paskelbta 16 minutes, ne 14:50 UTC
Vėjas 34 kt iš Pietvakarių
Temperatūra 8°C
Drėgmė 81%
Slėgis 993 hPa
Matomumas: 7000 m
Mažai debesys ne aukštis 1200 ft
Su prošvaistėmis ne aukštis 1500 ft
Liūtis kaimynystėje

METAR: ENHD 211450Z 22034KT 7000 VCSH FEW012 BKN015 08/05 Q0993

Laikas: 16:06 (15:06 UTC)

Prognozė

Ataskaita buvo paskelbta 1 valandą ir 6 minutes, ne 14:00 UTC
Prognozė galioja nuo 21 metu 15 UTC su 21 metu 21 UTC
Vėjas 32 kt iš Pietų/Pietvakarių su gūsio iki 45 kt
Matomumas: 9000 m
Išsisklaidę debesys ne aukštis 1200 ft
Su prošvaistėmis ne aukštis 1800 ft
lietus
Laikinai
nuo 21 metu 15 UTC su 21 metu 21 UTC
Matomumas: 4000 m
Su prošvaistėmis ne aukštis 1000 ft
lietus, dulksna
Tapsmas
nuo 21 metu 16 UTC su 21 metu 18 UTC
Vėjas 20 kt iš Vakarų/Pietvakarių

TAF: ENHD 211400Z 2115/2121 20032G45KT 9000 -RA SCT012 BKN018 TEMPO 2115/2121 4000 RADZ BKN010 BECMG 2116/2118 24020KT

Orai ataskaitas ir orų prognozės (METAR, TAF).

turimą stotys yra geltonos ir raudonos taškus žemėlapyje.

Perkelti pele per norėdami pamatyti stoties vardą.

Tada spustelėkite, norėdami matyti oro stebėjimo ir prognozės.

Norėdami pakeisti žemėlapį: spustelėkite ant žalios mygtukų su juodo kryžiaus žemyn,; žalią mygtuką su brūkšneliu, jei norite nutolinti; arba žalių rodyklių gretimoms žemėlapius.


METAR-TAF: